createdAt,value
2019-05-20T00:01:54.181Z,3.47
2019-05-20T00:04:28.762Z,4.40
2019-05-20T00:07:00.945Z,6.20
2019-05-20T00:12:22.510Z,8.03
2019-05-20T00:14:58.626Z,2.53
2019-05-20T00:17:37.869Z,3.07
2019-05-20T00:20:16.619Z,6.17
2019-05-20T00:28:47.357Z,4.23
2019-05-20T00:35:09.171Z,4.60
2019-05-20T00:37:39.734Z,8.27
2019-05-20T00:40:20.383Z,2.50
2019-05-20T00:42:52.524Z,3.03
2019-05-20T00:45:29.145Z,2.53
2019-05-20T00:48:17.525Z,1.50
2019-05-20T00:50:52.781Z,4.10
2019-05-20T00:53:26.207Z,3.97
2019-05-20T00:56:03.009Z,4.10
2019-05-20T00:58:35.038Z,3.13
2019-05-20T01:01:11.249Z,4.57
2019-05-20T01:03:50.967Z,3.67
2019-05-20T01:06:24.236Z,2.37
2019-05-20T01:08:56.317Z,2.93
2019-05-20T01:11:29.838Z,6.60
2019-05-20T01:16:52.208Z,3.10
2019-05-20T01:19:22.999Z,3.73
2019-05-20T01:21:55.284Z,4.30
2019-05-20T01:24:31.453Z,4.70
2019-05-20T01:27:02.822Z,6.73
2019-05-20T01:29:35.101Z,4.63
2019-05-20T01:35:07.754Z,4.40
2019-05-20T01:37:45.656Z,6.43
2019-05-20T01:43:57.458Z,5.27
2019-05-20T01:46:27.915Z,4.97
2019-05-20T01:48:58.710Z,5.60
2019-05-20T01:51:29.463Z,6.07
2019-05-20T01:54:00.602Z,6.97
2019-05-20T01:56:31.043Z,6.37
2019-05-20T01:59:01.502Z,5.93
2019-05-20T02:01:31.953Z,6.57
2019-05-20T02:04:02.387Z,5.30
2019-05-20T02:06:32.902Z,5.63
2019-05-20T02:09:03.422Z,5.47
2019-05-20T02:11:33.851Z,7.93
2019-05-20T02:14:05.970Z,8.73
2019-05-20T02:16:36.436Z,9.07
2019-05-20T02:19:06.945Z,7.97
2019-05-20T02:21:37.391Z,8.30
2019-05-20T02:24:07.874Z,8.03
2019-05-20T02:26:38.303Z,8.73
2019-05-20T02:29:08.830Z,10.87
2019-05-20T02:31:39.216Z,7.70
2019-05-20T02:34:09.680Z,7.87
2019-05-20T02:36:40.170Z,9.03
2019-05-20T02:39:10.651Z,12.40
2019-05-20T02:41:41.097Z,9.67
2019-05-20T02:44:11.844Z,11.63
2019-05-20T02:46:42.334Z,15.93
2019-05-20T02:49:12.817Z,19.40
2019-05-20T02:51:43.330Z,22.37
2019-05-20T02:54:13.952Z,24.23
2019-05-20T02:56:45.137Z,30.77
2019-05-20T02:59:15.631Z,29.87
2019-05-20T03:01:46.085Z,46.97
2019-05-20T03:04:16.843Z,45.00
2019-05-20T03:06:47.291Z,43.57
2019-05-20T03:09:17.790Z,45.03
2019-05-20T03:11:48.246Z,48.10
2019-05-20T03:14:18.742Z,50.00
2019-05-20T03:16:50.771Z,46.20
2019-05-20T03:19:21.224Z,50.80
2019-05-20T03:21:51.710Z,58.10
2019-05-20T03:24:22.230Z,49.73
2019-05-20T03:26:52.745Z,55.97
2019-05-20T03:29:23.227Z,54.77
2019-05-20T03:31:53.753Z,51.03
2019-05-20T03:34:45.664Z,52.47
2019-05-20T03:36:56.400Z,55.30
2019-05-20T03:39:26.896Z,51.37
2019-05-20T03:41:57.431Z,52.93
2019-05-20T03:44:30.760Z,49.67
2019-05-20T03:47:01.168Z,51.17
2019-05-20T03:49:31.607Z,48.43
2019-05-20T03:52:02.058Z,48.23
2019-05-20T03:54:32.603Z,49.13
2019-05-20T03:57:03.077Z,47.93
2019-05-20T03:59:34.333Z,50.13
2019-05-20T04:02:04.717Z,53.87
2019-05-20T04:04:35.190Z,57.33
2019-05-20T04:07:05.653Z,54.87
2019-05-20T04:09:36.124Z,46.90
2019-05-20T04:12:06.822Z,49.10
2019-05-20T04:14:37.395Z,58.30
2019-05-20T04:17:07.867Z,47.90
2019-05-20T04:19:38.575Z,45.73
2019-05-20T04:22:09.074Z,44.67
2019-05-20T04:24:39.545Z,50.53
2019-05-20T04:27:10.258Z,49.37
2019-05-20T04:29:40.800Z,42.93
2019-05-20T04:32:11.256Z,41.10
2019-05-20T04:34:41.830Z,52.93
2019-05-20T04:37:12.292Z,50.57
2019-05-20T04:39:42.876Z,48.00
2019-05-20T04:42:13.358Z,44.13
2019-05-20T04:44:43.893Z,43.20
2019-05-20T04:47:14.458Z,49.53
2019-05-20T04:49:45.085Z,45.03
2019-05-20T04:52:15.876Z,46.40
2019-05-20T04:54:46.573Z,45.93
2019-05-20T04:57:17.026Z,41.20
2019-05-20T04:59:47.510Z,45.13
2019-05-20T05:02:18.692Z,39.63
2019-05-20T05:04:49.131Z,37.83
2019-05-20T05:07:21.600Z,39.83
2019-05-20T05:09:52.121Z,36.53
2019-05-20T05:12:30.068Z,32.93
2019-05-20T05:15:00.666Z,30.97
2019-05-20T05:17:32.743Z,34.33
2019-05-20T05:20:03.878Z,33.07
2019-05-20T05:22:34.406Z,31.80
2019-05-20T05:25:06.981Z,31.13
2019-05-20T05:27:37.446Z,25.23
2019-05-20T05:30:08.592Z,28.93
2019-05-20T05:32:42.515Z,29.83
2019-05-20T05:35:14.789Z,28.40
2019-05-20T05:37:45.598Z,27.90
2019-05-20T05:40:17.924Z,27.83
2019-05-20T05:42:48.392Z,27.73
2019-05-20T05:45:23.467Z,25.23
2019-05-20T05:47:53.924Z,27.13
2019-05-20T05:50:24.418Z,26.77
2019-05-20T05:52:54.860Z,23.30
2019-05-20T05:55:26.217Z,25.40
2019-05-20T05:57:57.124Z,24.43
2019-05-20T06:00:27.857Z,26.80
2019-05-20T06:02:58.329Z,24.50
2019-05-20T06:05:31.741Z,22.50
2019-05-20T06:08:01.664Z,23.10
2019-05-20T06:10:35.524Z,22.87
2019-05-20T06:13:04.619Z,25.10
2019-05-20T06:15:35.401Z,28.00
2019-05-20T06:18:05.845Z,26.57
2019-05-20T06:20:36.333Z,28.87
2019-05-20T06:23:06.773Z,26.33
2019-05-20T06:25:37.258Z,25.10
2019-05-20T06:28:07.758Z,26.23
2019-05-20T06:30:43.163Z,26.80
2019-05-20T06:33:13.985Z,27.73
2019-05-20T06:35:44.997Z,29.20
2019-05-20T06:38:17.441Z,24.77
2019-05-20T06:40:47.885Z,24.87
2019-05-20T06:43:18.370Z,27.00
2019-05-20T06:45:51.511Z,27.83
2019-05-20T06:48:21.960Z,27.10
2019-05-20T06:50:52.422Z,26.40
2019-05-20T06:53:22.967Z,23.90
2019-05-20T06:55:53.506Z,24.63
2019-05-20T06:58:24.019Z,20.83
2019-05-20T07:00:54.489Z,23.60
2019-05-20T07:03:24.941Z,21.30
2019-05-20T07:05:55.458Z,21.23
2019-05-20T07:08:26.619Z,20.43
2019-05-20T07:10:57.061Z,23.30
2019-05-20T07:13:27.528Z,21.93
2019-05-20T07:15:59.678Z,24.37
2019-05-20T07:18:30.136Z,19.40
2019-05-20T07:21:00.603Z,20.27
2019-05-20T07:23:32.459Z,21.87
2019-05-20T07:26:03.026Z,20.57
2019-05-20T07:28:33.562Z,19.70
2019-05-20T07:31:04.018Z,21.70
2019-05-20T07:33:34.845Z,18.77
2019-05-20T07:36:05.381Z,18.97
2019-05-20T07:38:35.981Z,20.83
2019-05-20T07:41:08.174Z,19.20
2019-05-20T07:43:38.709Z,20.23
2019-05-20T07:46:10.943Z,19.93
2019-05-20T07:48:41.917Z,16.30
2019-05-20T07:51:13.379Z,17.70
2019-05-20T07:53:44.432Z,17.40
2019-05-20T07:56:25.349Z,21.70
2019-05-20T07:59:00.422Z,16.70
2019-05-20T08:01:31.049Z,15.30
2019-05-20T08:04:01.552Z,15.93
2019-05-20T08:06:32.117Z,14.77
2019-05-20T08:09:02.587Z,16.60
2019-05-20T08:11:33.873Z,20.00
2019-05-20T08:14:04.948Z,13.33
2019-05-20T08:16:35.664Z,14.07
2019-05-20T08:19:06.257Z,14.73
2019-05-20T08:21:38.700Z,15.07
2019-05-20T08:24:09.528Z,12.77
2019-05-20T08:26:41.679Z,11.97
2019-05-20T08:29:16.092Z,12.53
2019-05-20T08:31:46.543Z,14.13
2019-05-20T08:37:18.817Z,11.47
2019-05-20T08:39:51.415Z,10.57
2019-05-20T08:42:30.464Z,10.23
2019-05-20T08:44:55.793Z,13.13
2019-05-20T08:47:26.634Z,12.53
2019-05-20T08:49:59.343Z,11.40
2019-05-20T08:52:30.068Z,12.43
2019-05-20T08:55:00.533Z,10.63
2019-05-20T08:57:30.990Z,11.07
2019-05-20T09:00:01.517Z,10.97
2019-05-20T09:02:32.068Z,12.57
2019-05-20T09:05:02.921Z,12.70
2019-05-20T09:07:34.451Z,11.87
2019-05-20T09:10:06.768Z,10.40
2019-05-20T09:12:38.280Z,11.17
2019-05-20T09:15:09.114Z,11.37
2019-05-20T09:17:40.065Z,13.23
2019-05-20T09:20:11.999Z,11.90
2019-05-20T09:22:42.393Z,12.50
2019-05-20T09:25:14.433Z,13.87
2019-05-20T09:27:45.090Z,14.87
2019-05-20T09:30:16.367Z,13.77
2019-05-20T09:32:47.630Z,12.53
2019-05-20T09:35:18.269Z,14.43
2019-05-20T09:37:48.741Z,13.63
2019-05-20T09:40:35.831Z,15.63
2019-05-20T09:43:07.505Z,16.93
2019-05-20T09:45:38.209Z,19.73
2019-05-20T09:48:09.499Z,16.60
2019-05-20T09:50:40.142Z,19.90
2019-05-20T09:53:10.800Z,20.80
2019-05-20T09:55:41.381Z,23.53
2019-05-20T09:58:11.955Z,18.20
2019-05-20T10:00:42.462Z,21.93
2019-05-20T10:03:12.947Z,19.37
2019-05-20T10:05:43.409Z,20.10
2019-05-20T10:08:13.994Z,20.30
2019-05-20T10:10:44.465Z,19.03
2019-05-20T10:13:15.109Z,21.43
2019-05-20T10:15:46.274Z,22.03
2019-05-20T10:18:35.665Z,23.43
2019-05-20T10:20:49.187Z,20.80
2019-05-20T10:23:19.651Z,22.37
2019-05-20T10:25:50.126Z,21.93
2019-05-20T10:28:20.990Z,20.23
2019-05-20T10:30:51.486Z,23.33
2019-05-20T10:33:21.933Z,23.40
2019-05-20T10:35:52.939Z,24.03
2019-05-20T10:38:23.420Z,23.43
2019-05-20T10:40:53.923Z,23.77
2019-05-20T10:43:24.390Z,25.00
2019-05-20T10:45:56.369Z,20.60
2019-05-20T10:48:27.019Z,23.27
2019-05-20T10:50:57.545Z,22.90
2019-05-20T10:53:28.561Z,24.83
2019-05-20T10:55:59.483Z,21.00
2019-05-20T10:58:30.636Z,27.13
2019-05-20T11:01:03.517Z,25.60
2019-05-20T11:03:33.279Z,25.00
2019-05-20T11:06:05.980Z,27.27
2019-05-20T11:08:36.993Z,29.90
2019-05-20T11:11:07.551Z,26.97
2019-05-20T11:13:38.015Z,25.67
2019-05-20T11:16:08.518Z,25.30
2019-05-20T11:18:39.805Z,28.63
2019-05-20T11:21:10.226Z,27.90
2019-05-20T11:23:40.761Z,27.83
2019-05-20T11:26:11.225Z,33.07
2019-05-20T11:28:41.690Z,31.77
2019-05-20T11:31:12.102Z,38.13
2019-05-20T11:33:42.562Z,42.70
2019-05-20T11:36:13.011Z,39.87
2019-05-20T11:38:43.501Z,36.50
2019-05-20T11:41:13.945Z,41.47
2019-05-20T11:43:44.423Z,42.13
2019-05-20T11:46:15.223Z,44.33
2019-05-20T11:48:46.065Z,45.23
2019-05-20T11:51:16.527Z,41.27
2019-05-20T11:53:46.966Z,41.90
2019-05-20T11:56:19.066Z,51.23
2019-05-20T11:58:49.780Z,43.67
2019-05-20T12:01:20.486Z,40.83
2019-05-20T12:03:51.307Z,41.97
2019-05-20T12:06:21.753Z,37.70
2019-05-20T12:08:52.238Z,43.23
2019-05-20T12:11:22.729Z,46.17
2019-05-20T12:13:53.169Z,42.40
2019-05-20T12:16:23.625Z,40.80
2019-05-20T12:18:54.141Z,46.80
2019-05-20T12:21:24.566Z,49.10
2019-05-20T12:23:55.011Z,43.47
2019-05-20T12:26:25.785Z,42.23
2019-05-20T12:28:56.303Z,44.60
2019-05-20T12:31:27.000Z,48.77
2019-05-20T12:33:58.238Z,44.53
2019-05-20T12:36:28.696Z,45.90
2019-05-20T12:38:59.121Z,43.37
2019-05-20T12:41:29.628Z,45.90
2019-05-20T12:44:12.290Z,39.43
2019-05-20T12:46:32.239Z,36.47
2019-05-20T12:49:02.787Z,37.63
2019-05-20T12:51:33.228Z,38.07
2019-05-20T12:54:03.703Z,41.70
2019-05-20T12:56:34.285Z,39.43
2019-05-20T12:59:05.451Z,42.00
2019-05-20T13:01:36.469Z,36.80
2019-05-20T13:04:07.173Z,42.00
2019-05-20T13:06:37.663Z,42.27
2019-05-20T13:09:08.593Z,42.60
2019-05-20T13:11:40.619Z,46.40
2019-05-20T13:14:11.295Z,39.30
2019-05-20T13:16:42.107Z,45.27
2019-05-20T13:19:12.811Z,46.47
2019-05-20T13:21:43.249Z,41.73
2019-05-20T13:24:14.392Z,38.63
2019-05-20T13:26:45.042Z,44.23
2019-05-20T13:29:15.481Z,48.73
2019-05-20T13:31:47.547Z,40.53
2019-05-20T13:34:18.712Z,41.57
2019-05-20T13:36:49.565Z,37.93
2019-05-20T13:39:20.041Z,42.33
2019-05-20T13:41:50.750Z,39.73
2019-05-20T13:44:23.022Z,41.20
2019-05-20T13:46:53.780Z,48.30
2019-05-20T13:49:24.485Z,44.60
2019-05-20T13:51:55.124Z,47.13
2019-05-20T13:54:25.689Z,44.80
2019-05-20T13:56:56.135Z,52.13
2019-05-20T13:59:26.596Z,47.77
2019-05-20T14:01:57.045Z,48.90
2019-05-20T14:04:27.819Z,47.80
2019-05-20T14:06:58.289Z,46.20
2019-05-20T14:09:28.845Z,46.27
2019-05-20T14:11:59.308Z,47.03
2019-05-20T14:14:29.834Z,50.27
2019-05-20T14:17:00.370Z,47.83
2019-05-20T14:19:31.120Z,50.23
2019-05-20T14:22:01.704Z,46.53
2019-05-20T14:24:32.319Z,52.47
2019-05-20T14:27:02.832Z,44.60
2019-05-20T14:29:33.427Z,49.97
2019-05-20T14:32:03.980Z,52.83
2019-05-20T14:34:34.618Z,47.70
2019-05-20T14:37:05.325Z,46.33
2019-05-20T14:39:35.910Z,45.00
2019-05-20T14:42:06.625Z,46.50
2019-05-20T14:44:37.438Z,48.63
2019-05-20T14:47:07.984Z,40.87
2019-05-20T14:49:38.509Z,39.73
2019-05-20T14:52:09.029Z,32.10
2019-05-20T14:54:39.887Z,32.80
2019-05-20T14:57:10.575Z,27.70
2019-05-20T14:59:41.228Z,24.80
2019-05-20T15:02:11.710Z,24.70
2019-05-20T15:04:42.468Z,23.10
2019-05-20T15:07:12.941Z,24.60
2019-05-20T15:09:43.699Z,19.63
2019-05-20T15:12:14.241Z,20.87
2019-05-20T15:14:45.050Z,22.37
2019-05-20T15:17:15.577Z,23.80
2019-05-20T15:19:46.049Z,23.53
2019-05-20T15:22:16.485Z,23.23
2019-05-20T15:24:47.356Z,24.93
2019-05-20T15:27:17.896Z,24.17
2019-05-20T15:29:49.075Z,25.23
2019-05-20T15:32:38.067Z,24.93
2019-05-20T15:35:10.693Z,25.23
2019-05-20T15:37:42.833Z,26.57
2019-05-20T15:40:15.036Z,32.90
2019-05-20T15:42:54.238Z,26.83
2019-05-20T15:45:33.309Z,30.20
2019-05-20T15:48:56.826Z,32.20
2019-05-20T16:11:48.428Z,37.53
2019-05-20T16:14:58.015Z,37.97
2019-05-20T16:34:06.270Z,41.17
2019-05-20T16:37:07.909Z,37.57
2019-05-20T16:39:58.627Z,41.20
2019-05-20T16:42:43.447Z,41.60
2019-05-20T16:46:00.532Z,40.33
2019-05-20T17:03:01.180Z,37.57
2019-05-20T17:28:25.420Z,44.40
2019-05-20T18:02:24.109Z,49.93
2019-05-20T18:20:02.993Z,45.70
2019-05-20T18:26:03.449Z,64.53
2019-05-20T18:28:32.985Z,73.73
2019-05-20T18:31:08.906Z,66.00
2019-05-20T18:33:39.760Z,78.37
2019-05-20T18:48:25.202Z,55.10
2019-05-20T19:03:41.473Z,53.67
2019-05-20T19:19:45.899Z,34.87
2019-05-20T19:22:32.588Z,26.00
2019-05-20T19:25:14.189Z,29.10
2019-05-20T19:27:44.958Z,32.77
2019-05-20T19:30:18.843Z,31.63
2019-05-20T19:32:58.921Z,30.07
2019-05-20T19:35:29.381Z,31.27
2019-05-20T19:37:59.963Z,32.10
2019-05-20T19:40:34.837Z,30.43
2019-05-20T19:43:08.489Z,37.47
2019-05-20T19:45:41.441Z,34.27
2019-05-20T19:48:12.100Z,35.17
2019-05-20T19:50:42.743Z,38.07
2019-05-20T19:53:13.396Z,46.30
2019-05-20T19:55:46.554Z,43.17
2019-05-20T19:58:17.076Z,45.53
2019-05-20T20:00:56.644Z,49.70
2019-05-20T20:03:28.851Z,53.23
2019-05-20T20:06:08.658Z,51.77
2019-05-20T20:08:39.403Z,60.63
2019-05-20T20:11:09.859Z,58.57
2019-05-20T20:13:40.729Z,50.83
2019-05-20T20:22:11.187Z,65.70
2019-05-20T20:25:36.815Z,63.13
2019-05-20T20:28:07.368Z,74.37
2019-05-20T20:30:38.484Z,72.53
2019-05-20T20:33:10.030Z,77.07
2019-05-20T20:35:40.828Z,94.10
2019-05-20T20:38:11.577Z,94.17
2019-05-20T20:40:44.191Z,90.90
2019-05-20T20:43:16.281Z,78.93
2019-05-20T20:45:49.324Z,81.13
2019-05-20T22:26:37.780Z,27.23
2019-05-20T22:29:08.635Z,37.70
2019-05-20T22:31:39.626Z,55.57
2019-05-20T22:34:11.678Z,66.23
2019-05-20T22:36:43.007Z,53.60
2019-05-20T22:39:32.304Z,55.43
2019-05-20T22:42:34.052Z,46.30
2019-05-20T22:45:11.047Z,43.80
2019-05-20T23:03:56.689Z,35.00
2019-05-20T23:06:27.185Z,51.27
2019-05-20T23:09:07.718Z,42.53
2019-05-20T23:11:46.257Z,26.37
2019-05-20T23:25:30.764Z,22.27
2019-05-20T23:28:07.156Z,25.77
2019-05-20T23:30:37.494Z,16.10
2019-05-20T23:33:08.281Z,18.43
2019-05-20T23:35:38.987Z,31.30
2019-05-20T23:38:11.131Z,18.77
2019-05-20T23:40:41.668Z,16.73
2019-05-20T23:43:12.867Z,24.57
2019-05-20T23:45:45.076Z,21.40
2019-05-20T23:48:18.709Z,37.57
2019-05-20T23:50:54.316Z,50.60
2019-05-20T23:53:24.831Z,30.90
2019-05-20T23:55:55.411Z,32.60
2019-05-20T23:58:25.852Z,33.13
